sensor_id;sensor_type;location;lat;lon;timestamp;P1;durP1;ratioP1;P2;durP2;ratioP2
51248;SDS011;39642;47.556;18.728;2024-03-25T00:00:47;9.18;;;3.47;;
51248;SDS011;39642;47.556;18.728;2024-03-25T00:03:13;8.52;;;3.17;;
51248;SDS011;39642;47.556;18.728;2024-03-25T00:05:39;9.73;;;3.50;;
51248;SDS011;39642;47.556;18.728;2024-03-25T00:08:05;8.60;;;3.10;;
51248;SDS011;39642;47.556;18.728;2024-03-25T00:10:31;8.27;;;3.10;;
51248;SDS011;39642;47.556;18.728;2024-03-25T00:12:57;8.80;;;3.12;;
51248;SDS011;39642;47.556;18.728;2024-03-25T00:15:23;8.75;;;3.05;;
51248;SDS011;39642;47.556;18.728;2024-03-25T00:17:49;9.77;;;3.05;;
51248;SDS011;39642;47.556;18.728;2024-03-25T00:20:15;8.90;;;3.17;;
51248;SDS011;39642;47.556;18.728;2024-03-25T00:22:41;9.00;;;3.10;;
51248;SDS011;39642;47.556;18.728;2024-03-25T00:25:08;8.82;;;3.17;;
51248;SDS011;39642;47.556;18.728;2024-03-25T00:27:34;8.35;;;2.85;;
51248;SDS011;39642;47.556;18.728;2024-03-25T00:30:00;9.77;;;3.30;;
51248;SDS011;39642;47.556;18.728;2024-03-25T00:32:26;8.68;;;2.70;;
51248;SDS011;39642;47.556;18.728;2024-03-25T00:34:52;8.48;;;3.00;;
51248;SDS011;39642;47.556;18.728;2024-03-25T00:37:18;8.10;;;2.60;;
51248;SDS011;39642;47.556;18.728;2024-03-25T00:39:44;8.25;;;2.70;;
51248;SDS011;39642;47.556;18.728;2024-03-25T00:42:10;8.27;;;2.80;;
51248;SDS011;39642;47.556;18.728;2024-03-25T00:44:36;8.77;;;2.92;;
51248;SDS011;39642;47.556;18.728;2024-03-25T00:47:02;7.85;;;2.62;;
51248;SDS011;39642;47.556;18.728;2024-03-25T00:49:28;8.93;;;2.60;;
51248;SDS011;39642;47.556;18.728;2024-03-25T00:51:55;9.02;;;3.00;;
51248;SDS011;39642;47.556;18.728;2024-03-25T00:54:20;9.63;;;2.90;;
51248;SDS011;39642;47.556;18.728;2024-03-25T00:56:46;8.50;;;2.70;;
51248;SDS011;39642;47.556;18.728;2024-03-25T00:59:12;8.23;;;2.58;;
51248;SDS011;39642;47.556;18.728;2024-03-25T01:01:38;9.48;;;2.85;;
51248;SDS011;39642;47.556;18.728;2024-03-25T01:04:04;7.95;;;2.85;;
51248;SDS011;39642;47.556;18.728;2024-03-25T01:06:30;8.38;;;2.72;;
51248;SDS011;39642;47.556;18.728;2024-03-25T01:08:56;7.47;;;2.40;;
51248;SDS011;39642;47.556;18.728;2024-03-25T01:11:22;8.50;;;2.80;;
51248;SDS011;39642;47.556;18.728;2024-03-25T01:13:48;8.27;;;2.70;;
51248;SDS011;39642;47.556;18.728;2024-03-25T01:16:14;7.93;;;2.42;;
51248;SDS011;39642;47.556;18.728;2024-03-25T01:18:40;8.02;;;2.60;;
51248;SDS011;39642;47.556;18.728;2024-03-25T01:21:06;8.18;;;2.83;;
51248;SDS011;39642;47.556;18.728;2024-03-25T01:23:32;8.50;;;2.67;;
51248;SDS011;39642;47.556;18.728;2024-03-25T01:25:58;8.32;;;2.75;;
51248;SDS011;39642;47.556;18.728;2024-03-25T01:28:24;8.63;;;2.70;;
51248;SDS011;39642;47.556;18.728;2024-03-25T01:30:49;7.50;;;2.70;;
51248;SDS011;39642;47.556;18.728;2024-03-25T01:33:15;8.30;;;2.70;;
51248;SDS011;39642;47.556;18.728;2024-03-25T01:35:41;7.78;;;2.45;;
51248;SDS011;39642;47.556;18.728;2024-03-25T01:38:07;7.25;;;2.30;;
51248;SDS011;39642;47.556;18.728;2024-03-25T01:40:33;7.65;;;2.50;;
51248;SDS011;39642;47.556;18.728;2024-03-25T01:43:00;8.40;;;2.50;;
51248;SDS011;39642;47.556;18.728;2024-03-25T01:45:29;8.05;;;2.40;;
51248;SDS011;39642;47.556;18.728;2024-03-25T01:47:56;8.00;;;2.62;;
51248;SDS011;39642;47.556;18.728;2024-03-25T01:50:23;8.73;;;2.70;;
51248;SDS011;39642;47.556;18.728;2024-03-25T01:52:51;7.93;;;2.45;;
51248;SDS011;39642;47.556;18.728;2024-03-25T01:55:21;7.53;;;2.50;;
51248;SDS011;39642;47.556;18.728;2024-03-25T01:57:49;7.55;;;2.35;;
51248;SDS011;39642;47.556;18.728;2024-03-25T02:00:15;8.07;;;2.50;;
51248;SDS011;39642;47.556;18.728;2024-03-25T02:02:45;7.93;;;2.50;;
51248;SDS011;39642;47.556;18.728;2024-03-25T02:05:13;8.15;;;2.50;;
51248;SDS011;39642;47.556;18.728;2024-03-25T02:07:40;7.53;;;2.47;;
51248;SDS011;39642;47.556;18.728;2024-03-25T02:10:07;6.57;;;2.10;;
51248;SDS011;39642;47.556;18.728;2024-03-25T02:12:36;6.65;;;2.20;;
51248;SDS011;39642;47.556;18.728;2024-03-25T02:15:06;7.05;;;2.30;;
51248;SDS011;39642;47.556;18.728;2024-03-25T02:17:33;7.53;;;2.35;;
51248;SDS011;39642;47.556;18.728;2024-03-25T02:20:00;8.00;;;2.53;;
51248;SDS011;39642;47.556;18.728;2024-03-25T02:22:31;7.32;;;2.40;;
51248;SDS011;39642;47.556;18.728;2024-03-25T02:24:58;7.80;;;2.28;;
51248;SDS011;39642;47.556;18.728;2024-03-25T02:27:25;8.27;;;2.10;;
51248;SDS011;39642;47.556;18.728;2024-03-25T02:29:54;6.95;;;2.30;;
51248;SDS011;39642;47.556;18.728;2024-03-25T02:32:20;7.50;;;2.17;;
51248;SDS011;39642;47.556;18.728;2024-03-25T02:34:47;7.60;;;2.45;;
51248;SDS011;39642;47.556;18.728;2024-03-25T02:37:17;8.82;;;2.65;;
51248;SDS011;39642;47.556;18.728;2024-03-25T02:39:44;7.72;;;2.22;;
51248;SDS011;39642;47.556;18.728;2024-03-25T02:42:10;7.07;;;2.20;;
51248;SDS011;39642;47.556;18.728;2024-03-25T02:44:36;7.30;;;2.20;;
51248;SDS011;39642;47.556;18.728;2024-03-25T02:47:02;7.22;;;2.20;;
51248;SDS011;39642;47.556;18.728;2024-03-25T02:49:29;7.55;;;2.20;;
51248;SDS011;39642;47.556;18.728;2024-03-25T02:51:55;7.07;;;2.20;;
51248;SDS011;39642;47.556;18.728;2024-03-25T02:54:21;6.87;;;2.20;;
51248;SDS011;39642;47.556;18.728;2024-03-25T02:56:47;7.10;;;2.20;;
51248;SDS011;39642;47.556;18.728;2024-03-25T02:59:13;6.43;;;2.05;;
51248;SDS011;39642;47.556;18.728;2024-03-25T03:01:39;7.07;;;2.05;;
51248;SDS011;39642;47.556;18.728;2024-03-25T03:04:05;7.37;;;2.10;;
51248;SDS011;39642;47.556;18.728;2024-03-25T03:06:31;6.35;;;1.90;;
51248;SDS011;39642;47.556;18.728;2024-03-25T03:08:56;8.10;;;2.10;;
51248;SDS011;39642;47.556;18.728;2024-03-25T03:11:22;7.90;;;2.10;;
51248;SDS011;39642;47.556;18.728;2024-03-25T03:13:48;6.82;;;1.80;;
51248;SDS011;39642;47.556;18.728;2024-03-25T03:16:14;6.50;;;2.00;;
51248;SDS011;39642;47.556;18.728;2024-03-25T03:18:40;7.05;;;2.10;;
51248;SDS011;39642;47.556;18.728;2024-03-25T03:21:06;6.93;;;1.90;;
51248;SDS011;39642;47.556;18.728;2024-03-25T03:23:31;6.65;;;2.00;;
51248;SDS011;39642;47.556;18.728;2024-03-25T03:25:57;7.03;;;2.08;;
51248;SDS011;39642;47.556;18.728;2024-03-25T03:28:25;6.70;;;2.08;;
51248;SDS011;39642;47.556;18.728;2024-03-25T03:30:51;6.57;;;2.10;;
51248;SDS011;39642;47.556;18.728;2024-03-25T03:33:17;6.55;;;2.00;;
51248;SDS011;39642;47.556;18.728;2024-03-25T03:35:43;7.20;;;2.10;;
51248;SDS011;39642;47.556;18.728;2024-03-25T03:38:08;6.25;;;2.00;;
51248;SDS011;39642;47.556;18.728;2024-03-25T03:40:34;6.70;;;2.00;;
51248;SDS011;39642;47.556;18.728;2024-03-25T03:43:00;6.80;;;1.95;;
51248;SDS011;39642;47.556;18.728;2024-03-25T03:45:26;6.65;;;2.03;;
51248;SDS011;39642;47.556;18.728;2024-03-25T03:47:52;6.87;;;1.90;;
51248;SDS011;39642;47.556;18.728;2024-03-25T03:50:18;6.35;;;1.95;;
51248;SDS011;39642;47.556;18.728;2024-03-25T03:52:44;7.07;;;1.92;;
51248;SDS011;39642;47.556;18.728;2024-03-25T03:55:10;5.80;;;1.80;;
51248;SDS011;39642;47.556;18.728;2024-03-25T03:57:35;6.25;;;1.80;;
51248;SDS011;39642;47.556;18.728;2024-03-25T04:00:02;7.07;;;1.90;;
51248;SDS011;39642;47.556;18.728;2024-03-25T04:02:28;6.20;;;1.80;;
51248;SDS011;39642;47.556;18.728;2024-03-25T04:04:54;6.62;;;1.85;;
51248;SDS011;39642;47.556;18.728;2024-03-25T04:07:20;5.80;;;1.87;;
51248;SDS011;39642;47.556;18.728;2024-03-25T04:09:53;6.28;;;1.90;;
51248;SDS011;39642;47.556;18.728;2024-03-25T04:12:19;5.60;;;1.70;;
51248;SDS011;39642;47.556;18.728;2024-03-25T04:14:48;6.28;;;1.87;;
51248;SDS011;39642;47.556;18.728;2024-03-25T04:17:20;6.62;;;2.03;;
51248;SDS011;39642;47.556;18.728;2024-03-25T04:19:48;6.28;;;1.90;;
51248;SDS011;39642;47.556;18.728;2024-03-25T04:22:14;5.95;;;1.83;;
51248;SDS011;39642;47.556;18.728;2024-03-25T04:24:40;6.35;;;1.90;;
51248;SDS011;39642;47.556;18.728;2024-03-25T04:27:06;5.20;;;1.77;;
51248;SDS011;39642;47.556;18.728;2024-03-25T04:29:32;7.43;;;1.90;;
51248;SDS011;39642;47.556;18.728;2024-03-25T04:31:58;5.60;;;1.70;;
51248;SDS011;39642;47.556;18.728;2024-03-25T04:34:23;6.35;;;1.80;;
51248;SDS011;39642;47.556;18.728;2024-03-25T04:36:49;5.65;;;1.62;;
51248;SDS011;39642;47.556;18.728;2024-03-25T04:39:15;5.87;;;1.80;;
51248;SDS011;39642;47.556;18.728;2024-03-25T04:41:41;4.82;;;1.67;;
51248;SDS011;39642;47.556;18.728;2024-03-25T04:44:07;5.62;;;1.80;;
51248;SDS011;39642;47.556;18.728;2024-03-25T04:46:33;5.82;;;1.80;;
51248;SDS011;39642;47.556;18.728;2024-03-25T04:48:59;5.57;;;1.87;;
51248;SDS011;39642;47.556;18.728;2024-03-25T04:51:25;5.37;;;1.80;;
51248;SDS011;39642;47.556;18.728;2024-03-25T04:53:52;5.65;;;1.67;;
51248;SDS011;39642;47.556;18.728;2024-03-25T04:56:18;6.68;;;1.85;;
51248;SDS011;39642;47.556;18.728;2024-03-25T04:58:44;5.50;;;1.70;;
51248;SDS011;39642;47.556;18.728;2024-03-25T05:01:10;5.10;;;1.70;;
51248;SDS011;39642;47.556;18.728;2024-03-25T05:03:36;7.18;;;1.80;;
51248;SDS011;39642;47.556;18.728;2024-03-25T05:06:02;5.35;;;1.60;;
51248;SDS011;39642;47.556;18.728;2024-03-25T05:08:28;6.03;;;1.80;;
51248;SDS011;39642;47.556;18.728;2024-03-25T05:10:54;5.32;;;1.60;;
51248;SDS011;39642;47.556;18.728;2024-03-25T05:13:20;5.62;;;1.70;;
51248;SDS011;39642;47.556;18.728;2024-03-25T05:15:49;5.95;;;1.80;;
51248;SDS011;39642;47.556;18.728;2024-03-25T05:18:16;5.30;;;1.60;;
51248;SDS011;39642;47.556;18.728;2024-03-25T05:20:43;5.32;;;1.58;;
51248;SDS011;39642;47.556;18.728;2024-03-25T05:23:09;6.10;;;1.87;;
51248;SDS011;39642;47.556;18.728;2024-03-25T05:25:35;5.53;;;1.62;;
51248;SDS011;39642;47.556;18.728;2024-03-25T05:28:01;5.62;;;1.67;;
51248;SDS011;39642;47.556;18.728;2024-03-25T05:30:27;4.55;;;1.60;;
51248;SDS011;39642;47.556;18.728;2024-03-25T05:32:53;6.25;;;1.90;;
51248;SDS011;39642;47.556;18.728;2024-03-25T05:35:19;6.20;;;1.60;;
51248;SDS011;39642;47.556;18.728;2024-03-25T05:37:46;4.93;;;1.60;;
51248;SDS011;39642;47.556;18.728;2024-03-25T05:40:12;5.85;;;1.60;;
51248;SDS011;39642;47.556;18.728;2024-03-25T05:42:39;8.48;;;2.00;;
51248;SDS011;39642;47.556;18.728;2024-03-25T05:45:04;12.95;;;2.90;;
51248;SDS011;39642;47.556;18.728;2024-03-25T05:47:31;13.80;;;3.45;;
51248;SDS011;39642;47.556;18.728;2024-03-25T05:49:57;12.18;;;3.22;;
51248;SDS011;39642;47.556;18.728;2024-03-25T05:52:23;5.55;;;1.67;;
51248;SDS011;39642;47.556;18.728;2024-03-25T05:54:49;6.78;;;1.70;;
51248;SDS011;39642;47.556;18.728;2024-03-25T05:57:15;12.65;;;2.80;;
51248;SDS011;39642;47.556;18.728;2024-03-25T05:59:41;12.75;;;3.90;;
51248;SDS011;39642;47.556;18.728;2024-03-25T06:02:06;12.00;;;3.78;;
51248;SDS011;39642;47.556;18.728;2024-03-25T06:04:32;12.77;;;3.97;;
51248;SDS011;39642;47.556;18.728;2024-03-25T06:06:58;17.92;;;3.10;;
51248;SDS011;39642;47.556;18.728;2024-03-25T06:09:24;10.07;;;2.53;;
51248;SDS011;39642;47.556;18.728;2024-03-25T06:11:50;8.88;;;2.30;;
51248;SDS011;39642;47.556;18.728;2024-03-25T06:14:16;7.72;;;1.95;;
51248;SDS011;39642;47.556;18.728;2024-03-25T06:16:42;8.10;;;1.80;;
51248;SDS011;39642;47.556;18.728;2024-03-25T08:16:51;45.92;;;4.35;;
51248;SDS011;39642;47.556;18.728;2024-03-25T08:19:17;10.57;;;2.37;;
51248;SDS011;39642;47.556;18.728;2024-03-25T08:21:43;18.12;;;2.70;;
51248;SDS011;39642;47.556;18.728;2024-03-25T08:24:08;31.48;;;2.97;;
51248;SDS011;39642;47.556;18.728;2024-03-25T08:26:34;9.45;;;1.80;;
51248;SDS011;39642;47.556;18.728;2024-03-25T08:29:00;11.93;;;2.20;;
51248;SDS011;39642;47.556;18.728;2024-03-25T08:31:26;11.30;;;2.05;;
51248;SDS011;39642;47.556;18.728;2024-03-25T08:33:52;9.93;;;1.80;;
51248;SDS011;39642;47.556;18.728;2024-03-25T08:36:18;12.05;;;2.10;;
51248;SDS011;39642;47.556;18.728;2024-03-25T08:38:44;9.55;;;1.70;;
51248;SDS011;39642;47.556;18.728;2024-03-25T08:41:10;9.77;;;2.30;;
51248;SDS011;39642;47.556;18.728;2024-03-25T08:43:37;14.60;;;2.60;;
51248;SDS011;39642;47.556;18.728;2024-03-25T08:46:03;10.73;;;2.53;;
51248;SDS011;39642;47.556;18.728;2024-03-25T08:48:29;10.57;;;2.40;;
51248;SDS011;39642;47.556;18.728;2024-03-25T08:50:55;15.07;;;2.30;;
51248;SDS011;39642;47.556;18.728;2024-03-25T08:53:21;15.18;;;2.60;;
51248;SDS011;39642;47.556;18.728;2024-03-25T08:55:48;15.52;;;2.08;;
51248;SDS011;39642;47.556;18.728;2024-03-25T08:58:14;11.12;;;2.20;;
51248;SDS011;39642;47.556;18.728;2024-03-25T09:00:41;14.93;;;2.90;;
51248;SDS011;39642;47.556;18.728;2024-03-25T09:03:07;16.55;;;2.70;;
51248;SDS011;39642;47.556;18.728;2024-03-25T09:05:34;16.52;;;2.60;;
51248;SDS011;39642;47.556;18.728;2024-03-25T09:08:00;21.17;;;3.08;;
51248;SDS011;39642;47.556;18.728;2024-03-25T09:10:26;15.57;;;2.58;;
51248;SDS011;39642;47.556;18.728;2024-03-25T09:13:11;17.08;;;2.90;;
51248;SDS011;39642;47.556;18.728;2024-03-25T09:15:37;19.65;;;3.17;;
51248;SDS011;39642;47.556;18.728;2024-03-25T09:18:03;13.07;;;2.22;;
51248;SDS011;39642;47.556;18.728;2024-03-25T09:20:29;18.05;;;2.70;;
51248;SDS011;39642;47.556;18.728;2024-03-25T09:22:55;14.05;;;2.30;;
51248;SDS011;39642;47.556;18.728;2024-03-25T09:25:20;18.45;;;2.87;;
51248;SDS011;39642;47.556;18.728;2024-03-25T09:27:47;15.73;;;2.53;;
51248;SDS011;39642;47.556;18.728;2024-03-25T09:30:13;16.02;;;2.67;;
51248;SDS011;39642;47.556;18.728;2024-03-25T09:32:40;12.85;;;2.22;;
51248;SDS011;39642;47.556;18.728;2024-03-25T09:35:06;14.80;;;2.53;;
51248;SDS011;39642;47.556;18.728;2024-03-25T09:37:33;10.05;;;1.85;;
51248;SDS011;39642;47.556;18.728;2024-03-25T09:39:59;10.43;;;2.22;;
51248;SDS011;39642;47.556;18.728;2024-03-25T09:42:28;11.30;;;2.28;;
51248;SDS011;39642;47.556;18.728;2024-03-25T09:44:59;20.00;;;2.72;;
51248;SDS011;39642;47.556;18.728;2024-03-25T09:47:25;22.35;;;3.08;;
51248;SDS011;39642;47.556;18.728;2024-03-25T09:49:51;21.37;;;3.05;;
51248;SDS011;39642;47.556;18.728;2024-03-25T09:52:20;27.00;;;3.35;;
51248;SDS011;39642;47.556;18.728;2024-03-25T09:54:46;20.42;;;2.75;;
51248;SDS011;39642;47.556;18.728;2024-03-25T09:57:12;19.48;;;3.03;;
51248;SDS011;39642;47.556;18.728;2024-03-25T09:59:39;26.67;;;3.30;;
51248;SDS011;39642;47.556;18.728;2024-03-25T10:02:05;21.35;;;2.65;;
51248;SDS011;39642;47.556;18.728;2024-03-25T10:04:37;34.70;;;4.32;;
51248;SDS011;39642;47.556;18.728;2024-03-25T10:07:09;22.00;;;2.95;;
51248;SDS011;39642;47.556;18.728;2024-03-25T10:09:35;19.83;;;3.00;;
51248;SDS011;39642;47.556;18.728;2024-03-25T10:12:01;20.12;;;2.97;;
51248;SDS011;39642;47.556;18.728;2024-03-25T10:14:27;20.80;;;2.47;;
51248;SDS011;39642;47.556;18.728;2024-03-25T10:16:53;16.45;;;2.75;;
51248;SDS011;39642;47.556;18.728;2024-03-25T10:19:19;15.05;;;2.65;;
51248;SDS011;39642;47.556;18.728;2024-03-25T10:21:45;19.20;;;2.62;;
51248;SDS011;39642;47.556;18.728;2024-03-25T10:24:10;14.32;;;2.62;;
51248;SDS011;39642;47.556;18.728;2024-03-25T10:26:36;13.52;;;2.08;;
51248;SDS011;39642;47.556;18.728;2024-03-25T10:29:04;14.25;;;2.00;;
51248;SDS011;39642;47.556;18.728;2024-03-25T10:31:34;24.75;;;3.22;;
51248;SDS011;39642;47.556;18.728;2024-03-25T10:34:00;18.48;;;2.58;;
51248;SDS011;39642;47.556;18.728;2024-03-25T10:36:26;25.25;;;2.80;;
51248;SDS011;39642;47.556;18.728;2024-03-25T10:38:56;22.02;;;2.97;;
51248;SDS011;39642;47.556;18.728;2024-03-25T10:41:23;14.68;;;2.28;;
51248;SDS011;39642;47.556;18.728;2024-03-25T10:43:51;22.50;;;2.87;;
51248;SDS011;39642;47.556;18.728;2024-03-25T10:46:19;23.00;;;3.30;;
51248;SDS011;39642;47.556;18.728;2024-03-25T10:48:47;18.95;;;2.45;;
51248;SDS011;39642;47.556;18.728;2024-03-25T10:51:22;22.15;;;2.58;;
51248;SDS011;39642;47.556;18.728;2024-03-25T10:53:53;22.35;;;2.60;;
51248;SDS011;39642;47.556;18.728;2024-03-25T10:56:21;19.40;;;2.87;;
51248;SDS011;39642;47.556;18.728;2024-03-25T10:58:50;22.48;;;3.08;;
51248;SDS011;39642;47.556;18.728;2024-03-25T11:01:16;18.17;;;3.62;;
51248;SDS011;39642;47.556;18.728;2024-03-25T11:03:44;21.42;;;3.45;;
51248;SDS011;39642;47.556;18.728;2024-03-25T11:06:14;20.52;;;3.12;;
51248;SDS011;39642;47.556;18.728;2024-03-25T11:08:40;21.08;;;2.83;;
51248;SDS011;39642;47.556;18.728;2024-03-25T11:11:07;24.95;;;3.55;;
51248;SDS011;39642;47.556;18.728;2024-03-25T11:13:33;20.50;;;3.42;;
51248;SDS011;39642;47.556;18.728;2024-03-25T11:15:59;16.87;;;3.28;;
51248;SDS011;39642;47.556;18.728;2024-03-25T11:18:26;26.52;;;3.65;;
51248;SDS011;39642;47.556;18.728;2024-03-25T11:21:01;30.85;;;4.75;;
51248;SDS011;39642;47.556;18.728;2024-03-25T11:23:38;16.52;;;2.90;;
51248;SDS011;39642;47.556;18.728;2024-03-25T11:26:16;27.08;;;4.03;;
51248;SDS011;39642;47.556;18.728;2024-03-25T11:28:46;21.08;;;3.47;;
51248;SDS011;39642;47.556;18.728;2024-03-25T11:31:12;24.35;;;4.03;;
51248;SDS011;39642;47.556;18.728;2024-03-25T11:33:41;19.48;;;3.53;;
51248;SDS011;39642;47.556;18.728;2024-03-25T11:36:07;18.73;;;3.47;;
51248;SDS011;39642;47.556;18.728;2024-03-25T11:38:33;42.13;;;4.75;;
51248;SDS011;39642;47.556;18.728;2024-03-25T11:40:59;31.23;;;4.93;;
51248;SDS011;39642;47.556;18.728;2024-03-25T11:43:26;35.25;;;5.45;;
51248;SDS011;39642;47.556;18.728;2024-03-25T11:45:52;31.35;;;4.68;;
51248;SDS011;39642;47.556;18.728;2024-03-25T11:48:20;37.60;;;5.35;;
51248;SDS011;39642;47.556;18.728;2024-03-25T11:50:52;32.45;;;5.05;;
51248;SDS011;39642;47.556;18.728;2024-03-25T11:53:18;33.03;;;4.18;;
51248;SDS011;39642;47.556;18.728;2024-03-25T11:55:47;37.80;;;4.75;;
51248;SDS011;39642;47.556;18.728;2024-03-25T11:58:13;34.03;;;4.50;;
51248;SDS011;39642;47.556;18.728;2024-03-25T12:00:46;29.42;;;4.72;;
51248;SDS011;39642;47.556;18.728;2024-03-25T12:03:17;36.47;;;4.37;;
51248;SDS011;39642;47.556;18.728;2024-03-25T12:05:46;41.13;;;5.30;;
51248;SDS011;39642;47.556;18.728;2024-03-25T12:08:12;46.80;;;4.97;;
51248;SDS011;39642;47.556;18.728;2024-03-25T12:10:38;48.83;;;5.35;;
51248;SDS011;39642;47.556;18.728;2024-03-25T12:13:24;24.80;;;4.75;;
51248;SDS011;39642;47.556;18.728;2024-03-25T12:15:51;27.85;;;4.03;;
51248;SDS011;39642;47.556;18.728;2024-03-25T12:18:18;30.98;;;3.92;;
51248;SDS011;39642;47.556;18.728;2024-03-25T12:20:47;23.35;;;3.65;;
51248;SDS011;39642;47.556;18.728;2024-03-25T12:23:14;28.35;;;3.83;;
51248;SDS011;39642;47.556;18.728;2024-03-25T12:25:40;24.30;;;4.10;;
51248;SDS011;39642;47.556;18.728;2024-03-25T12:28:09;27.42;;;4.20;;
51248;SDS011;39642;47.556;18.728;2024-03-25T12:30:48;22.77;;;3.97;;
51248;SDS011;39642;47.556;18.728;2024-03-25T12:33:16;25.23;;;3.90;;
51248;SDS011;39642;47.556;18.728;2024-03-25T12:35:44;37.67;;;4.95;;
51248;SDS011;39642;47.556;18.728;2024-03-25T12:38:21;54.33;;;5.85;;
51248;SDS011;39642;47.556;18.728;2024-03-25T12:40:51;36.88;;;4.25;;
51248;SDS011;39642;47.556;18.728;2024-03-25T12:43:17;32.05;;;3.67;;
51248;SDS011;39642;47.556;18.728;2024-03-25T12:45:43;31.73;;;3.87;;
51248;SDS011;39642;47.556;18.728;2024-03-25T12:48:10;29.02;;;4.57;;
51248;SDS011;39642;47.556;18.728;2024-03-25T12:50:36;27.75;;;4.35;;
51248;SDS011;39642;47.556;18.728;2024-03-25T12:53:03;33.10;;;4.53;;
51248;SDS011;39642;47.556;18.728;2024-03-25T12:55:29;24.58;;;3.60;;
51248;SDS011;39642;47.556;18.728;2024-03-25T12:57:55;27.27;;;3.65;;
51248;SDS011;39642;47.556;18.728;2024-03-25T13:00:21;26.42;;;3.55;;
51248;SDS011;39642;47.556;18.728;2024-03-25T13:02:48;33.88;;;3.55;;
51248;SDS011;39642;47.556;18.728;2024-03-25T13:05:14;28.98;;;3.70;;
51248;SDS011;39642;47.556;18.728;2024-03-25T13:07:40;25.83;;;3.22;;
51248;SDS011;39642;47.556;18.728;2024-03-25T13:10:06;24.60;;;3.28;;
51248;SDS011;39642;47.556;18.728;2024-03-25T13:12:32;21.85;;;3.87;;
51248;SDS011;39642;47.556;18.728;2024-03-25T13:14:58;16.27;;;3.00;;
51248;SDS011;39642;47.556;18.728;2024-03-25T13:17:24;20.08;;;3.28;;
51248;SDS011;39642;47.556;18.728;2024-03-25T13:19:50;19.48;;;3.80;;
51248;SDS011;39642;47.556;18.728;2024-03-25T13:22:16;35.80;;;4.28;;
51248;SDS011;39642;47.556;18.728;2024-03-25T13:24:42;22.23;;;3.37;;
51248;SDS011;39642;47.556;18.728;2024-03-25T13:27:08;28.62;;;3.80;;
51248;SDS011;39642;47.556;18.728;2024-03-25T13:29:34;23.02;;;3.35;;
51248;SDS011;39642;47.556;18.728;2024-03-25T13:32:03;31.73;;;3.45;;
51248;SDS011;39642;47.556;18.728;2024-03-25T13:34:29;30.30;;;3.85;;
51248;SDS011;39642;47.556;18.728;2024-03-25T13:36:55;24.12;;;3.42;;
51248;SDS011;39642;47.556;18.728;2024-03-25T13:39:21;26.02;;;3.58;;
51248;SDS011;39642;47.556;18.728;2024-03-25T13:41:47;23.23;;;3.65;;
51248;SDS011;39642;47.556;18.728;2024-03-25T13:44:13;20.02;;;3.25;;
51248;SDS011;39642;47.556;18.728;2024-03-25T13:46:39;20.85;;;3.20;;
51248;SDS011;39642;47.556;18.728;2024-03-25T13:49:05;18.20;;;3.03;;
51248;SDS011;39642;47.556;18.728;2024-03-25T13:51:31;20.17;;;3.40;;
51248;SDS011;39642;47.556;18.728;2024-03-25T13:53:57;21.75;;;3.45;;
51248;SDS011;39642;47.556;18.728;2024-03-25T13:56:23;14.85;;;2.78;;
51248;SDS011;39642;47.556;18.728;2024-03-25T13:58:48;17.67;;;2.62;;
51248;SDS011;39642;47.556;18.728;2024-03-25T14:01:14;15.40;;;2.62;;
51248;SDS011;39642;47.556;18.728;2024-03-25T14:03:41;21.58;;;3.22;;
51248;SDS011;39642;47.556;18.728;2024-03-25T14:06:07;16.02;;;2.62;;
51248;SDS011;39642;47.556;18.728;2024-03-25T14:08:32;19.87;;;3.08;;
51248;SDS011;39642;47.556;18.728;2024-03-25T14:10:59;26.27;;;3.22;;
51248;SDS011;39642;47.556;18.728;2024-03-25T14:13:28;23.73;;;3.87;;
51248;SDS011;39642;47.556;18.728;2024-03-25T14:15:54;25.98;;;3.50;;
51248;SDS011;39642;47.556;18.728;2024-03-25T14:18:20;23.30;;;3.10;;
51248;SDS011;39642;47.556;18.728;2024-03-25T14:20:46;20.73;;;3.00;;
51248;SDS011;39642;47.556;18.728;2024-03-25T14:23:12;19.35;;;3.25;;
51248;SDS011;39642;47.556;18.728;2024-03-25T14:25:38;19.60;;;3.17;;
51248;SDS011;39642;47.556;18.728;2024-03-25T14:28:05;18.77;;;2.95;;
51248;SDS011;39642;47.556;18.728;2024-03-25T14:30:31;14.00;;;2.42;;
51248;SDS011;39642;47.556;18.728;2024-03-25T14:32:57;26.45;;;4.15;;
51248;SDS011;39642;47.556;18.728;2024-03-25T14:35:23;25.65;;;3.30;;
51248;SDS011;39642;47.556;18.728;2024-03-25T14:37:49;22.55;;;3.30;;
51248;SDS011;39642;47.556;18.728;2024-03-25T14:40:15;33.60;;;3.60;;
51248;SDS011;39642;47.556;18.728;2024-03-25T14:42:43;23.17;;;3.05;;
51248;SDS011;39642;47.556;18.728;2024-03-25T14:45:09;21.02;;;3.20;;
51248;SDS011;39642;47.556;18.728;2024-03-25T14:47:35;29.67;;;4.07;;
51248;SDS011;39642;47.556;18.728;2024-03-25T14:50:02;26.55;;;3.65;;
51248;SDS011;39642;47.556;18.728;2024-03-25T14:52:30;45.03;;;5.22;;
51248;SDS011;39642;47.556;18.728;2024-03-25T14:54:56;27.05;;;3.47;;
51248;SDS011;39642;47.556;18.728;2024-03-25T14:57:22;29.12;;;3.90;;
51248;SDS011;39642;47.556;18.728;2024-03-25T14:59:48;23.15;;;3.67;;
51248;SDS011;39642;47.556;18.728;2024-03-25T15:02:14;37.25;;;3.90;;
51248;SDS011;39642;47.556;18.728;2024-03-25T15:04:40;28.58;;;3.85;;
51248;SDS011;39642;47.556;18.728;2024-03-25T15:07:10;32.03;;;3.47;;
51248;SDS011;39642;47.556;18.728;2024-03-25T15:09:36;29.17;;;3.50;;
51248;SDS011;39642;47.556;18.728;2024-03-25T15:12:03;23.62;;;3.47;;
51248;SDS011;39642;47.556;18.728;2024-03-25T15:14:29;27.45;;;3.70;;
51248;SDS011;39642;47.556;18.728;2024-03-25T15:16:59;28.02;;;3.83;;
51248;SDS011;39642;47.556;18.728;2024-03-25T15:19:25;23.27;;;3.12;;
51248;SDS011;39642;47.556;18.728;2024-03-25T15:21:51;21.55;;;3.00;;
51248;SDS011;39642;47.556;18.728;2024-03-25T15:24:17;17.45;;;2.83;;
51248;SDS011;39642;47.556;18.728;2024-03-25T15:26:44;18.65;;;3.10;;
51248;SDS011;39642;47.556;18.728;2024-03-25T15:29:10;10.57;;;2.67;;
51248;SDS011;39642;47.556;18.728;2024-03-25T15:31:36;18.40;;;2.90;;
51248;SDS011;39642;47.556;18.728;2024-03-25T15:34:02;16.77;;;2.90;;
51248;SDS011;39642;47.556;18.728;2024-03-25T15:36:28;17.12;;;3.28;;
51248;SDS011;39642;47.556;18.728;2024-03-25T15:38:56;12.77;;;3.00;;
51248;SDS011;39642;47.556;18.728;2024-03-25T15:41:22;12.68;;;2.72;;
51248;SDS011;39642;47.556;18.728;2024-03-25T15:43:54;12.00;;;2.65;;
51248;SDS011;39642;47.556;18.728;2024-03-25T15:46:21;12.30;;;2.92;;
51248;SDS011;39642;47.556;18.728;2024-03-25T15:48:49;13.20;;;2.67;;
51248;SDS011;39642;47.556;18.728;2024-03-25T15:51:15;13.90;;;3.40;;
51248;SDS011;39642;47.556;18.728;2024-03-25T15:53:43;16.45;;;2.92;;
51248;SDS011;39642;47.556;18.728;2024-03-25T15:56:09;11.45;;;2.90;;
51248;SDS011;39642;47.556;18.728;2024-03-25T15:58:34;13.62;;;2.67;;
51248;SDS011;39642;47.556;18.728;2024-03-25T16:01:00;12.77;;;2.65;;
51248;SDS011;39642;47.556;18.728;2024-03-25T16:03:26;11.38;;;2.90;;
51248;SDS011;39642;47.556;18.728;2024-03-25T16:05:52;11.25;;;2.50;;
51248;SDS011;39642;47.556;18.728;2024-03-25T16:08:20;11.77;;;2.67;;
51248;SDS011;39642;47.556;18.728;2024-03-25T16:10:46;12.23;;;2.45;;
51248;SDS011;39642;47.556;18.728;2024-03-25T16:13:12;10.68;;;2.58;;
51248;SDS011;39642;47.556;18.728;2024-03-25T16:15:40;13.27;;;2.60;;
51248;SDS011;39642;47.556;18.728;2024-03-25T16:18:07;11.57;;;2.70;;
51248;SDS011;39642;47.556;18.728;2024-03-25T16:20:33;12.43;;;2.20;;